createdAt,value
2023-05-10T00:00:16.477Z,1010.0774606807464
2023-05-10T00:18:05.196Z,1009.9280981546683
2023-05-10T00:24:27.970Z,1009.9032128364826
2023-05-10T00:30:50.144Z,1009.8657892894433
2023-05-10T00:37:11.954Z,1009.8223271285415
2023-05-10T00:43:33.541Z,1009.7500006272979
2023-05-10T00:49:55.485Z,1009.7386640099863
2023-05-10T00:56:16.627Z,1009.7684861506724
2023-05-10T01:02:38.092Z,1009.7216741429766
2023-05-10T01:08:58.935Z,1009.6627432756604
2023-05-10T01:15:22.688Z,1009.6234316926817
2023-05-10T01:21:42.975Z,1009.6019479696007
2023-05-10T01:28:04.046Z,1009.5793024581724
2023-05-10T01:40:36.053Z,1009.5930088129735
2023-05-10T01:46:57.641Z,1009.5769954010545
2023-05-10T01:53:18.775Z,1009.5494199010539
2023-05-10T01:59:40.710Z,1009.5042151924873
2023-05-10T02:06:03.219Z,1009.4786261330152
2023-05-10T02:12:29.519Z,1009.4747437555867
2023-05-10T02:18:51.439Z,1009.445097760188
2023-05-10T02:25:16.277Z,1009.4715563594858
2023-05-10T02:31:37.618Z,1009.5176091386509
2023-05-10T02:44:36.826Z,1009.522030829332
2023-05-10T02:50:59.869Z,1009.4922263881672
2023-05-10T02:57:22.646Z,1009.5057018400391
2023-05-10T03:03:45.904Z,1009.517138034874
2023-05-10T03:13:56.159Z,1009.5284236948011
2023-05-10T03:20:18.982Z,1009.4893667352017
2023-05-10T03:26:39.954Z,1009.4550059696235
2023-05-10T03:33:01.203Z,1009.4251168982217
2023-05-10T03:39:23.828Z,1009.4053304234452
2023-05-10T03:49:40.873Z,1009.4342717516806
2023-05-10T03:59:29.569Z,1009.4090979860573
2023-05-10T04:05:54.439Z,1009.3917402430022
2023-05-10T04:13:19.683Z,1009.3858184670579
2023-05-10T04:19:43.401Z,1009.4129596663447
2023-05-10T04:26:07.346Z,1009.4569202362654
2023-05-10T04:33:23.344Z,1009.401567442887
2023-05-10T04:39:44.592Z,1009.418725291356
2023-05-10T04:46:06.299Z,1009.4777356484402
2023-05-10T04:52:27.781Z,1009.5419096334158
2023-05-10T04:58:48.856Z,1009.6151609648094
2023-05-10T05:11:51.684Z,1009.8609721418552
2023-05-10T05:19:58.028Z,1009.8839208824949
2023-05-10T05:30:53.777Z,1009.9859575260851
2023-05-10T05:37:15.169Z,1010.0411495995298
2023-05-10T05:46:20.534Z,1010.0530297078204
2023-05-10T05:52:44.820Z,1010.1193849298406
2023-05-10T06:00:13.649Z,1010.1677661996541
2023-05-10T06:06:36.219Z,1010.2736161206417
2023-05-10T06:12:57.285Z,1010.3807342169657
2023-05-10T06:24:51.231Z,1010.4899317670427
2023-05-10T06:31:12.027Z,1010.5332575820563
2023-05-10T06:37:33.614Z,1010.5339577428596
2023-05-10T06:51:27.046Z,1010.6090151483432
2023-05-10T06:58:21.562Z,1010.740089067425
2023-05-10T07:04:42.841Z,1010.8593321308642
2023-05-10T07:11:03.123Z,1010.9502852412552
2023-05-10T07:27:24.243Z,1011.0757401418914
2023-05-10T07:33:44.994Z,1011.1265400727941
2023-05-10T07:41:30.666Z,1011.1446854105682
2023-05-10T07:47:51.512Z,1011.183919128015
2023-05-10T07:56:24.376Z,1011.1990475086925
2023-05-10T08:05:36.721Z,1011.2736746364955
2023-05-10T08:21:28.349Z,1011.4262073331971
2023-05-10T08:31:28.886Z,1011.480310214405
2023-05-10T08:37:49.927Z,1011.4866382682585
2023-05-10T08:44:11.918Z,1011.4792853974136
2023-05-10T08:51:35.141Z,1011.5531221051198
2023-05-10T08:57:56.455Z,1011.6237427910144
2023-05-10T09:04:18.326Z,1011.666740544371
2023-05-10T09:10:40.604Z,1011.7379479952713
2023-05-10T09:17:02.438Z,1011.8068673779533
2023-05-10T09:23:24.481Z,1011.8441835720673
2023-05-10T09:29:45.941Z,1011.9027550197674
2023-05-10T09:42:05.791Z,1012.0461895667102
2023-05-10T09:48:28.145Z,1012.041574608379
2023-05-10T09:59:10.346Z,1012.0756116366216
2023-05-10T10:05:33.915Z,1012.0773832774421
2023-05-10T10:11:56.763Z,1012.0792138439585
2023-05-10T10:18:19.451Z,1012.136559921244
2023-05-10T10:30:38.881Z,1012.3802052020806
2023-05-10T10:37:00.504Z,1012.4025086254842
2023-05-10T10:43:23.961Z,1012.3444748823784
2023-05-10T10:49:45.986Z,1012.2769606548046
2023-05-10T10:56:38.150Z,1012.2736938187493
2023-05-10T11:03:00.716Z,1012.2426646436743
2023-05-10T11:09:23.145Z,1012.2766868595221
2023-05-10T11:15:44.878Z,1012.3299092608204
2023-05-10T11:22:07.175Z,1012.3947570983972
2023-05-10T11:34:24.445Z,1012.4350526656077
2023-05-10T11:40:46.611Z,1012.4385878025407
2023-05-10T11:47:10.010Z,1012.4717260102808
2023-05-10T11:53:32.008Z,1012.5196775752414
2023-05-10T11:59:54.174Z,1012.6203574248403
2023-05-10T12:06:16.232Z,1012.8640392871615
2023-05-10T12:12:38.442Z,1012.977965645633
2023-05-10T12:19:01.503Z,1012.9942231773352
2023-05-10T12:25:28.235Z,1013.0311634333743
2023-05-10T12:31:56.516Z,1013.1215385263065
2023-05-10T12:38:21.774Z,1013.166299862274
2023-05-10T12:45:00.455Z,1013.1976958472037
2023-05-10T12:51:23.186Z,1013.2843793813773
2023-05-10T13:03:10.607Z,1013.468888872449
2023-05-10T13:10:42.020Z,1013.5315490810585
2023-05-10T13:19:24.118Z,1013.5405514084525
2023-05-10T13:25:45.085Z,1013.5661453975424
2023-05-10T13:32:07.113Z,1013.5972961404332
2023-05-10T13:38:30.123Z,1013.6460211834209
2023-05-10T13:44:52.482Z,1013.7337578674029
2023-05-10T13:51:25.190Z,1013.7998636319076
2023-05-10T14:08:36.726Z,1013.823503308251
2023-05-10T14:15:03.629Z,1013.8484814597284
2023-05-10T14:27:38.397Z,1013.829588545444
2023-05-10T14:34:02.132Z,1013.7715004435549
2023-05-10T14:40:27.821Z,1013.7600236972434
2023-05-10T14:48:09.883Z,1013.8072825031475
2023-05-10T14:54:36.869Z,1013.8331823088306
2023-05-10T15:01:02.250Z,1013.8590381856051
2023-05-10T15:07:28.728Z,1013.9113776351327
2023-05-10T15:13:58.143Z,1013.9677917346779
2023-05-10T15:20:31.726Z,1013.9659907657201
2023-05-10T15:26:53.068Z,1013.9973273014492
2023-05-10T15:33:15.195Z,1014.0755213198194
2023-05-10T15:41:39.965Z,1014.151380924673
2023-05-10T15:48:01.840Z,1014.2346922122592
2023-05-10T15:54:23.689Z,1014.2534164307726
2023-05-10T16:00:45.782Z,1014.3005178533598
2023-05-10T16:07:09.305Z,1014.4056090693051
2023-05-10T16:13:32.115Z,1014.4943782431467
2023-05-10T16:19:55.838Z,1014.5584487670781
2023-05-10T16:27:52.658Z,1014.6052090661917
2023-05-10T16:39:22.104Z,1014.609388650064
2023-05-10T16:45:44.940Z,1014.681767785342
2023-05-10T16:56:44.589Z,1014.8633644171191
2023-05-10T17:03:08.050Z,1014.9163327873187
2023-05-10T17:09:30.387Z,1014.9391146827057
2023-05-10T17:15:53.532Z,1014.9904701477374
2023-05-10T17:23:32.909Z,1015.0951536697967
2023-05-10T17:35:35.483Z,1015.2514330300138
2023-05-10T17:41:57.752Z,1015.3175459026272
2023-05-10T17:48:26.479Z,1015.4089032048523
2023-05-10T18:00:06.216Z,1015.5074362693947
2023-05-10T18:06:28.866Z,1015.5520115787672
2023-05-10T18:12:50.811Z,1015.578818997506
2023-05-10T18:19:14.954Z,1015.6331949249228
2023-05-10T18:25:37.621Z,1015.7041433938257
2023-05-10T18:32:09.406Z,1015.789113632136
2023-05-10T18:38:34.963Z,1015.794096171135
2023-05-10T18:44:57.287Z,1015.8599875357721
2023-05-10T18:51:19.345Z,1015.8674669792491
2023-05-10T18:57:42.972Z,1015.9086443147253
2023-05-10T19:04:05.861Z,1015.978157247732
2023-05-10T19:20:00.254Z,1016.1270773730698
2023-05-10T19:26:20.238Z,1016.1653903158088
2023-05-10T19:32:40.195Z,1016.2448550984957
2023-05-10T19:39:00.873Z,1016.3345784736817
2023-05-10T19:45:20.379Z,1016.3525780893657
2023-05-10T19:51:44.595Z,1016.4221056528174
2023-05-10T19:59:39.604Z,1016.4709696956099
2023-05-10T20:05:59.337Z,1016.4975042771676
2023-05-10T20:20:26.995Z,1016.5969207524955
2023-05-10T20:28:40.995Z,1016.5892685972176
2023-05-10T20:39:41.027Z,1016.6493787646795
2023-05-10T20:46:01.527Z,1016.6443939710407
2023-05-10T20:52:30.055Z,1016.6213926655192
2023-05-10T20:58:50.254Z,1016.6162511881595
2023-05-10T21:05:15.232Z,1016.6394066283385
2023-05-10T21:11:36.226Z,1016.6595293183086
2023-05-10T21:17:55.334Z,1016.6468740263407
2023-05-10T21:24:17.306Z,1016.6454933246985
2023-05-10T21:36:34.151Z,1016.7287607808246
2023-05-10T21:42:56.680Z,1016.7908754649889
2023-05-10T21:51:16.222Z,1016.8171084355498
2023-05-10T21:57:37.212Z,1016.8473461155019
2023-05-10T22:06:52.686Z,1016.8662258772835
2023-05-10T22:13:13.486Z,1016.8854136080017
2023-05-10T22:19:32.332Z,1016.8907726614257
2023-05-10T22:25:50.829Z,1016.9029066526778
2023-05-10T22:33:29.433Z,1016.9557940294276
2023-05-10T22:39:48.325Z,1016.9508431322059
2023-05-10T22:46:07.627Z,1016.9990629836334
2023-05-10T22:52:26.782Z,1017.0433640693994
2023-05-10T22:58:45.795Z,1017.0550274496192
2023-05-10T23:05:04.870Z,1017.0510103629255
2023-05-10T23:15:48.876Z,1017.056574797278
2023-05-10T23:25:36.233Z,1017.1610823928918
2023-05-10T23:31:55.140Z,1017.1883100786365
2023-05-10T23:38:14.246Z,1017.2161388724877
2023-05-10T23:44:33.568Z,1017.192115827951
2023-05-10T23:56:25.449Z,1017.165281170823
